Time;durP1;ratioP1;P1;durP2;ratioP2;P2;SDS_P1;SDS_P2;PMS_P1;PMS_P2;Temp;Humidity;BMP_temperature;BMP_pressure;BME280_temperature;BME280_humidity;BME280_pressure;Samples;Min_cycle;Max_cycle;Signal;HPM_P1;HPM_P2
2023/11/12 00:00:29;;;;;;;8.57;5.95;;;6.80;99.90;;;;;;2077482;28;20567;-73
2023/11/12 00:01:30;;;;;;;7.93;5.80;;;6.80;99.90;;;;;;2067487;28;20028;-74
2023/11/12 00:02:30;;;;;;;7.53;5.72;;;6.80;99.90;;;;;;2067411;28;20022;-73
2023/11/12 00:03:31;;;;;;;7.55;5.50;;;6.80;99.90;;;;;;2079307;28;20242;-72
2023/11/12 00:04:34;;;;;;;8.02;5.65;;;6.80;99.90;;;;;;2077127;28;20052;-74
2023/11/12 00:05:36;;;;;;;9.55;6.15;;;6.80;99.90;;;;;;2071360;28;20040;-73
2023/11/12 00:06:40;;;;;;;8.05;5.95;;;6.80;99.90;;;;;;2075019;28;20033;-73
2023/11/12 00:07:41;;;;;;;7.03;5.85;;;6.70;99.90;;;;;;2076564;28;20112;-72
2023/11/12 00:08:42;;;;;;;8.95;5.63;;;6.80;99.90;;;;;;2075056;28;20025;-72
2023/11/12 00:09:44;;;;;;;7.88;5.70;;;6.80;99.90;;;;;;2075112;28;20041;-72
2023/11/12 00:10:45;;;;;;;7.30;5.60;;;6.70;99.90;;;;;;2079675;28;20037;-73
2023/11/12 00:11:45;;;;;;;9.48;5.72;;;6.70;99.90;;;;;;2079208;28;20033;-72
2023/11/12 00:12:46;;;;;;;7.45;5.50;;;6.70;99.90;;;;;;2078943;28;20061;-73
2023/11/12 00:13:48;;;;;;;7.03;5.60;;;6.70;99.90;;;;;;2075406;28;20503;-72
2023/11/12 00:14:49;;;;;;;7.22;5.22;;;6.80;99.90;;;;;;2076053;28;20308;-72
2023/11/12 00:15:51;;;;;;;7.45;5.38;;;6.70;99.90;;;;;;2078686;28;20036;-73
2023/11/12 00:16:52;;;;;;;8.25;5.55;;;6.80;99.90;;;;;;2067971;28;20303;-72
2023/11/12 00:17:53;;;;;;;7.43;5.47;;;6.70;99.90;;;;;;2077726;28;20040;-72
2023/11/12 00:18:57;;;;;;;8.63;5.65;;;6.70;99.90;;;;;;2075490;28;20084;-72
2023/11/12 00:19:58;;;;;;;8.30;5.68;;;6.80;99.90;;;;;;2077402;28;20032;-73
2023/11/12 00:20:58;;;;;;;8.70;5.45;;;6.80;99.90;;;;;;2077254;28;20017;-74
2023/11/12 00:21:59;;;;;;;7.95;5.47;;;6.80;99.90;;;;;;2070311;28;20029;-73
2023/11/12 00:23:00;;;;;;;9.40;5.40;;;6.80;99.90;;;;;;2068756;28;20073;-73
2023/11/12 00:24:02;;;;;;;7.30;5.20;;;6.80;99.90;;;;;;2068380;28;20424;-73
2023/11/12 00:25:04;;;;;;;7.53;5.50;;;6.80;99.90;;;;;;2078727;28;20048;-73
2023/11/12 00:26:04;;;;;;;8.35;5.82;;;6.70;99.90;;;;;;2078320;28;20025;-72
2023/11/12 00:27:05;;;;;;;8.13;5.68;;;6.80;99.90;;;;;;2076372;28;20112;-73
2023/11/12 00:28:06;;;;;;;8.65;5.70;;;6.80;99.90;;;;;;2075529;28;20075;-72
2023/11/12 00:29:06;;;;;;;7.93;5.93;;;6.80;99.90;;;;;;2074655;28;20622;-73
2023/11/12 00:30:08;;;;;;;7.47;5.07;;;6.80;99.90;;;;;;2078364;28;20297;-72
2023/11/12 00:31:08;;;;;;;8.20;5.65;;;6.80;99.90;;;;;;2078660;28;20021;-75
2023/11/12 00:32:11;;;;;;;6.60;5.45;;;6.80;99.90;;;;;;2075093;28;20722;-73
2023/11/12 00:33:11;;;;;;;7.75;5.13;;;6.80;99.90;;;;;;2067144;28;20034;-73
2023/11/12 00:34:12;;;;;;;6.82;5.13;;;6.80;99.90;;;;;;2078198;28;20104;-72
2023/11/12 00:35:13;;;;;;;8.70;5.78;;;6.80;99.90;;;;;;2074571;28;20556;-73
2023/11/12 00:36:14;;;;;;;7.43;5.32;;;6.80;99.90;;;;;;2069961;28;20041;-73
2023/11/12 00:37:14;;;;;;;8.55;5.28;;;6.80;99.90;;;;;;2078148;28;20127;-73
2023/11/12 00:38:15;;;;;;;7.45;5.70;;;6.80;99.90;;;;;;2066311;28;20097;-72
2023/11/12 00:39:16;;;;;;;8.73;5.88;;;6.80;99.90;;;;;;2070060;28;20126;-72
2023/11/12 00:40:16;;;;;;;9.07;5.72;;;6.80;99.90;;;;;;2070167;28;20021;-73
2023/11/12 00:41:18;;;;;;;8.82;5.65;;;6.80;99.90;;;;;;2066289;28;20080;-74
2023/11/12 00:42:19;;;;;;;9.18;5.88;;;6.80;99.90;;;;;;2069601;28;20647;-71
2023/11/12 00:43:27;;;;;;;7.50;5.50;;;6.80;99.90;;;;;;2066015;28;20110;-72
2023/11/12 00:44:27;;;;;;;6.25;5.32;;;6.80;99.90;;;;;;2061581;28;20109;-73
2023/11/12 00:45:29;;;;;;;7.07;5.60;;;6.90;99.90;;;;;;2076593;28;20546;-73
2023/11/12 00:46:31;;;;;;;12.95;5.95;;;6.90;99.90;;;;;;2076342;28;20025;-73
2023/11/12 00:47:32;;;;;;;8.82;6.00;;;6.90;99.90;;;;;;2076153;28;20068;-73
2023/11/12 00:48:33;;;;;;;7.35;5.90;;;6.90;99.90;;;;;;2075217;28;20030;-73
2023/11/12 00:49:34;;;;;;;6.90;5.72;;;6.80;99.90;;;;;;2067046;28;20041;-72
2023/11/12 00:50:35;;;;;;;7.95;6.22;;;6.80;99.90;;;;;;2066655;28;20511;-72
2023/11/12 00:51:36;;;;;;;8.80;5.85;;;6.80;99.90;;;;;;2078067;28;20095;-73
2023/11/12 00:52:36;;;;;;;8.50;5.72;;;6.80;99.90;;;;;;2077463;28;20037;-72
2023/11/12 00:53:37;;;;;;;7.68;5.88;;;6.80;99.90;;;;;;2075815;28;20060;-72
2023/11/12 00:54:37;;;;;;;9.55;6.38;;;6.80;99.90;;;;;;2079035;28;20041;-72
2023/11/12 00:55:38;;;;;;;7.18;5.72;;;6.80;99.90;;;;;;2082655;28;20538;-74
2023/11/12 00:56:39;;;;;;;9.10;5.97;;;6.80;99.90;;;;;;2069108;28;20076;-72
2023/11/12 00:57:40;;;;;;;9.05;6.05;;;6.80;99.90;;;;;;2066814;28;20029;-72
2023/11/12 00:58:40;;;;;;;9.10;6.10;;;6.80;99.90;;;;;;2079261;28;20086;-73
2023/11/12 00:59:42;;;;;;;8.10;5.72;;;6.80;99.90;;;;;;2077730;28;20467;-73
2023/11/12 01:00:42;;;;;;;7.13;5.80;;;6.80;99.90;;;;;;2059363;28;20022;-74
2023/11/12 01:01:43;;;;;;;7.78;5.80;;;6.80;99.90;;;;;;2063086;28;20125;-73
2023/11/12 01:02:44;;;;;;;7.25;6.10;;;6.80;99.90;;;;;;2077515;28;20366;-73
2023/11/12 01:03:44;;;;;;;8.00;6.03;;;6.80;99.90;;;;;;2063669;28;20030;-76
2023/11/12 01:04:46;;;;;;;7.93;5.32;;;6.80;99.90;;;;;;2061618;28;20033;-73
2023/11/12 01:05:48;;;;;;;7.50;5.70;;;6.80;99.90;;;;;;2055330;28;20069;-73
2023/11/12 01:06:48;;;;;;;8.52;6.18;;;6.80;99.90;;;;;;2074328;28;20277;-73
2023/11/12 01:07:49;;;;;;;7.18;5.80;;;6.80;99.90;;;;;;2074253;28;20069;-73
2023/11/12 01:08:49;;;;;;;8.73;6.00;;;6.70;99.90;;;;;;2078347;28;20059;-73
2023/11/12 01:09:50;;;;;;;9.90;5.78;;;6.70;99.90;;;;;;2066753;28;20022;-73
2023/11/12 01:10:54;;;;;;;9.02;5.90;;;6.70;99.90;;;;;;2068338;28;20097;-73
2023/11/12 01:11:54;;;;;;;8.20;6.10;;;6.70;99.90;;;;;;2078064;28;20222;-73
2023/11/12 01:12:55;;;;;;;9.05;5.60;;;6.70;99.90;;;;;;2058349;28;20624;-73
2023/11/12 01:13:56;;;;;;;9.05;5.53;;;6.80;99.90;;;;;;2065974;28;20330;-72
2023/11/12 01:14:56;;;;;;;7.53;5.70;;;6.70;99.90;;;;;;2078689;28;20203;-73
2023/11/12 01:15:58;;;;;;;10.20;5.60;;;6.80;99.90;;;;;;2076130;28;20487;-72
2023/11/12 01:16:59;;;;;;;8.75;5.65;;;6.80;99.90;;;;;;2076370;28;20032;-73
2023/11/12 01:17:59;;;;;;;9.57;5.40;;;6.80;99.90;;;;;;2070009;28;20034;-73
2023/11/12 01:19:00;;;;;;;8.45;5.72;;;6.80;99.90;;;;;;2068228;28;20037;-73
2023/11/12 01:20:01;;;;;;;6.68;5.55;;;6.80;99.90;;;;;;2076627;28;20032;-73
2023/11/12 01:21:05;;;;;;;8.93;5.60;;;6.80;99.90;;;;;;2078136;28;20021;-73
2023/11/12 01:22:06;;;;;;;8.07;5.72;;;6.80;99.90;;;;;;2074073;28;20568;-73
2023/11/12 01:23:07;;;;;;;8.15;5.68;;;6.80;99.90;;;;;;2074147;28;20591;-73
2023/11/12 01:24:08;;;;;;;8.48;5.68;;;6.80;99.90;;;;;;2058411;28;20035;-73
2023/11/12 01:25:09;;;;;;;9.00;6.18;;;6.80;99.90;;;;;;2069707;28;20763;-73
2023/11/12 01:26:09;;;;;;;7.57;5.60;;;6.80;99.90;;;;;;2068979;28;20124;-74
2023/11/12 01:27:10;;;;;;;7.28;5.75;;;6.80;99.90;;;;;;2066946;28;20581;-73
2023/11/12 01:28:10;;;;;;;7.82;5.30;;;6.80;99.90;;;;;;2074314;28;20435;-73
2023/11/12 01:29:13;;;;;;;8.63;5.60;;;6.80;99.90;;;;;;2069248;28;20017;-73
2023/11/12 01:30:15;;;;;;;7.03;5.57;;;6.80;99.90;;;;;;2058089;28;20109;-73
2023/11/12 01:31:16;;;;;;;8.77;5.65;;;6.90;99.90;;;;;;2066107;28;20562;-74
2023/11/12 01:32:16;;;;;;;7.55;5.72;;;6.90;99.90;;;;;;2078222;28;20059;-72
2023/11/12 01:33:19;;;;;;;9.68;5.50;;;6.80;99.90;;;;;;2074247;28;20030;-72
2023/11/12 01:34:21;;;;;;;7.45;5.18;;;6.80;99.90;;;;;;2069807;28;20026;-72
2023/11/12 01:35:23;;;;;;;9.02;5.50;;;6.90;99.90;;;;;;2070134;28;20021;-73
2023/11/12 01:36:23;;;;;;;8.38;5.93;;;6.90;99.90;;;;;;2075129;28;20021;-74
2023/11/12 01:37:24;;;;;;;9.90;5.63;;;6.90;99.90;;;;;;2077664;28;20052;-73
2023/11/12 01:38:24;;;;;;;7.47;5.25;;;6.90;99.90;;;;;;2078715;28;20537;-74
2023/11/12 01:39:26;;;;;;;6.97;5.70;;;6.90;99.90;;;;;;2077874;28;20708;-74
2023/11/12 01:40:28;;;;;;;6.90;5.55;;;6.90;99.90;;;;;;2075237;28;20025;-73
2023/11/12 01:41:28;;;;;;;7.28;5.43;;;6.90;99.90;;;;;;2077396;28;20064;-73
2023/11/12 01:42:29;;;;;;;7.63;5.65;;;6.90;99.90;;;;;;2077896;28;20561;-73
2023/11/12 01:43:30;;;;;;;6.15;5.55;;;6.90;99.90;;;;;;2067488;28;20032;-73
2023/11/12 01:44:30;;;;;;;8.07;5.50;;;7.00;99.90;;;;;;2077124;28;20040;-73
2023/11/12 01:45:31;;;;;;;8.10;5.40;;;6.90;99.90;;;;;;2071557;28;20128;-72
2023/11/12 01:46:33;;;;;;;7.30;5.43;;;7.00;99.90;;;;;;2059655;28;20413;-73
2023/11/12 01:47:34;;;;;;;8.35;5.10;;;7.00;99.90;;;;;;2067966;28;20038;-72
2023/11/12 01:48:35;;;;;;;10.07;6.00;;;7.00;99.90;;;;;;2076629;28;20033;-72
2023/11/12 01:49:37;;;;;;;7.07;5.68;;;7.00;99.90;;;;;;2071521;28;21093;-73
2023/11/12 01:50:38;;;;;;;8.38;5.88;;;6.90;99.90;;;;;;2070121;28;20269;-72
2023/11/12 01:51:39;;;;;;;7.53;5.80;;;7.00;99.90;;;;;;2075669;28;20526;-72
2023/11/12 01:52:41;;;;;;;6.40;5.32;;;6.90;99.90;;;;;;2079656;28;20112;-72
2023/11/12 01:53:42;;;;;;;7.13;5.53;;;6.90;99.90;;;;;;2079275;28;20029;-73
2023/11/12 01:54:43;;;;;;;7.53;5.40;;;7.00;99.90;;;;;;2077123;28;20023;-73
2023/11/12 01:55:47;;;;;;;8.27;5.18;;;7.00;99.90;;;;;;2079826;28;20515;-73
2023/11/12 01:56:48;;;;;;;6.97;5.32;;;7.00;99.90;;;;;;2071723;28;20031;-73
2023/11/12 01:57:52;;;;;;;8.93;5.72;;;7.00;99.90;;;;;;2068082;28;20112;-73
2023/11/12 01:58:55;;;;;;;6.38;5.63;;;6.90;99.90;;;;;;2071197;28;20488;-72
2023/11/12 01:59:56;;;;;;;7.32;5.35;;;7.00;99.90;;;;;;2068677;28;20381;-72
2023/11/12 02:00:58;;;;;;;8.20;5.65;;;7.00;99.90;;;;;;2074649;28;20045;-72
2023/11/12 02:01:58;;;;;;;7.05;5.30;;;6.90;99.90;;;;;;2078406;28;20021;-72
2023/11/12 02:03:03;;;;;;;9.18;5.45;;;6.90;99.90;;;;;;2078003;28;20539;-74
2023/11/12 02:04:07;;;;;;;9.95;5.85;;;6.90;99.90;;;;;;2080052;28;20032;-74
2023/11/12 02:05:08;;;;;;;7.32;5.75;;;6.90;99.90;;;;;;2078268;28;20055;-74
2023/11/12 02:06:12;;;;;;;7.47;5.70;;;6.90;99.90;;;;;;2075615;28;20021;-73
2023/11/12 02:07:13;;;;;;;8.50;6.00;;;6.90;99.90;;;;;;2067510;28;20026;-72
2023/11/12 02:08:14;;;;;;;8.38;5.38;;;6.90;99.90;;;;;;2063024;28;20045;-73
2023/11/12 02:09:16;;;;;;;9.52;5.60;;;6.90;99.90;;;;;;2067836;28;20435;-73
2023/11/12 02:10:17;;;;;;;7.97;5.78;;;6.90;99.90;;;;;;2075509;28;20021;-74
2023/11/12 02:11:18;;;;;;;8.07;5.60;;;6.90;99.90;;;;;;2075507;28;20124;-73
2023/11/12 02:12:18;;;;;;;8.25;6.13;;;6.90;99.90;;;;;;2075820;28;20025;-73
2023/11/12 02:13:21;;;;;;;7.07;5.10;;;6.90;99.90;;;;;;2079221;28;20049;-72
2023/11/12 02:14:25;;;;;;;7.38;5.47;;;6.90;99.90;;;;;;2079587;28;20080;-72
2023/11/12 02:15:26;;;;;;;8.98;5.60;;;6.90;99.90;;;;;;2068820;28;20034;-73
2023/11/12 02:16:27;;;;;;;8.02;5.85;;;6.90;99.90;;;;;;2078806;28;20063;-74
2023/11/12 02:17:30;;;;;;;8.98;5.70;;;6.90;99.90;;;;;;2079516;28;20115;-73
2023/11/12 02:18:31;;;;;;;6.70;5.78;;;6.90;99.90;;;;;;2077400;28;20604;-73
2023/11/12 02:19:32;;;;;;;6.78;5.32;;;7.00;99.90;;;;;;2069688;28;20045;-73
2023/11/12 02:20:32;;;;;;;9.35;5.97;;;7.00;99.90;;;;;;2071380;28;20056;-73
2023/11/12 02:21:33;;;;;;;6.60;5.90;;;6.90;99.90;;;;;;2069444;28;20026;-73
2023/11/12 02:22:34;;;;;;;7.20;5.85;;;6.90;99.90;;;;;;2063033;28;20038;-73
2023/11/12 02:23:38;;;;;;;7.90;5.70;;;6.90;99.90;;;;;;2077655;28;20036;-74
2023/11/12 02:24:38;;;;;;;7.13;5.72;;;6.90;99.90;;;;;;2079259;28;20450;-73
2023/11/12 02:25:39;;;;;;;8.13;6.05;;;7.00;99.90;;;;;;2068488;28;20492;-73
2023/11/12 02:26:40;;;;;;;6.22;5.63;;;7.00;99.90;;;;;;2077929;28;20630;-73
2023/11/12 02:27:41;;;;;;;9.35;5.60;;;6.90;99.90;;;;;;2076892;28;20039;-74
2023/11/12 02:28:41;;;;;;;6.95;5.55;;;6.90;99.90;;;;;;2079366;28;20021;-73
2023/11/12 02:29:49;;;;;;;8.48;5.93;;;7.00;99.90;;;;;;2067341;28;20034;-73
2023/11/12 02:30:53;;;;;;;6.68;5.93;;;7.00;99.90;;;;;;2055985;28;20033;-73
2023/11/12 02:31:55;;;;;;;7.20;5.65;;;6.90;99.90;;;;;;2063864;28;20038;-73
2023/11/12 02:32:55;;;;;;;8.68;6.13;;;6.90;99.90;;;;;;2074478;28;20033;-73
2023/11/12 02:33:57;;;;;;;8.40;6.10;;;7.00;99.90;;;;;;2075176;28;20029;-74
2023/11/12 02:34:58;;;;;;;9.00;5.97;;;6.90;99.90;;;;;;2070098;28;20053;-74
2023/11/12 02:35:58;;;;;;;7.75;5.90;;;7.00;99.90;;;;;;2071334;28;20117;-73
2023/11/12 02:37:00;;;;;;;6.93;5.70;;;6.90;99.90;;;;;;2068743;28;20055;-74
2023/11/12 02:38:01;;;;;;;8.75;6.13;;;7.00;99.90;;;;;;2070801;28;20018;-73
2023/11/12 02:39:02;;;;;;;8.07;5.82;;;7.00;99.90;;;;;;2070338;28;20033;-74
2023/11/12 02:40:04;;;;;;;8.35;6.00;;;7.00;99.90;;;;;;2070695;28;20033;-74
2023/11/12 02:41:08;;;;;;;7.18;6.15;;;6.90;99.90;;;;;;2077010;28;20419;-72
2023/11/12 02:42:09;;;;;;;7.68;6.15;;;6.90;99.90;;;;;;2077312;28;20033;-73
2023/11/12 02:43:10;;;;;;;7.75;6.28;;;6.90;99.90;;;;;;2079189;28;20025;-72
2023/11/12 02:44:13;;;;;;;7.70;5.95;;;6.90;99.90;;;;;;2077354;28;20124;-73
2023/11/12 02:45:14;;;;;;;8.35;6.20;;;6.90;99.90;;;;;;2071331;28;20394;-73
2023/11/12 02:46:15;;;;;;;9.50;6.07;;;6.90;99.90;;;;;;2076681;28;20600;-73
2023/11/12 02:47:16;;;;;;;8.75;6.10;;;6.90;99.90;;;;;;2079574;28;20048;-73
2023/11/12 02:48:17;;;;;;;7.80;6.25;;;6.90;99.90;;;;;;2062059;28;20022;-72
2023/11/12 02:49:43;;;;;;;10.43;6.30;;;6.90;99.90;;;;;;2068203;28;20096;-73
2023/11/12 02:50:44;;;;;;;7.90;6.30;;;6.90;99.90;;;;;;2063984;28;20044;-73
2023/11/12 02:51:45;;;;;;;11.13;6.60;;;6.90;99.90;;;;;;2061111;28;20829;-73
2023/11/12 02:52:47;;;;;;;9.77;6.45;;;6.90;99.90;;;;;;2083820;28;20052;-73
2023/11/12 02:53:48;;;;;;;10.23;6.80;;;6.90;99.90;;;;;;2079158;28;20053;-72
2023/11/12 02:54:48;;;;;;;10.00;6.40;;;6.90;99.90;;;;;;2078760;28;20479;-73
2023/11/12 02:55:49;;;;;;;7.88;5.90;;;6.90;99.90;;;;;;2067258;28;20037;-74
2023/11/12 02:56:50;;;;;;;8.57;6.20;;;6.90;99.90;;;;;;2070655;28;20133;-74
2023/11/12 02:57:50;;;;;;;7.72;6.45;;;6.90;99.90;;;;;;2070373;28;20026;-73
2023/11/12 02:58:51;;;;;;;10.82;6.50;;;6.90;99.90;;;;;;2075879;28;20033;-73
2023/11/12 02:59:55;;;;;;;10.30;6.60;;;6.90;99.90;;;;;;2079564;28;20108;-74
2023/11/12 03:00:56;;;;;;;8.55;6.40;;;7.00;99.90;;;;;;2059517;28;20635;-74
2023/11/12 03:01:57;;;;;;;8.73;6.38;;;6.90;99.90;;;;;;2059600;28;20477;-73
2023/11/12 03:03:00;;;;;;;9.93;6.50;;;7.00;99.90;;;;;;2062282;28;20026;-73
2023/11/12 03:04:00;;;;;;;10.43;6.60;;;6.90;99.90;;;;;;2071345;28;20033;-73
2023/11/12 03:05:01;;;;;;;8.73;6.75;;;6.90;99.90;;;;;;2067456;28;20046;-73
2023/11/12 03:06:02;;;;;;;9.93;6.50;;;7.00;99.90;;;;;;2066413;28;20033;-73
2023/11/12 03:07:03;;;;;;;8.95;6.47;;;6.90;99.90;;;;;;2087296;28;20020;-75
2023/11/12 03:08:04;;;;;;;7.63;6.13;;;7.00;99.90;;;;;;2076858;28;20534;-74
2023/11/12 03:09:06;;;;;;;7.70;6.18;;;7.00;99.90;;;;;;2078938;28;20190;-74
2023/11/12 03:10:11;;;;;;;8.63;6.32;;;7.00;99.90;;;;;;2070642;28;20081;-73
2023/11/12 03:11:12;;;;;;;8.32;6.45;;;6.90;99.90;;;;;;2061082;28;20064;-73
2023/11/12 03:12:12;;;;;;;8.13;6.43;;;6.90;99.90;;;;;;2073900;28;20471;-73
2023/11/12 03:13:13;;;;;;;8.25;6.15;;;6.90;99.90;;;;;;2063106;28;20100;-74
2023/11/12 03:14:16;;;;;;;7.95;6.47;;;7.00;99.90;;;;;;2069516;28;21297;-73
2023/11/12 03:15:16;;;;;;;9.60;6.60;;;7.00;99.90;;;;;;2074929;28;20025;-73
2023/11/12 03:16:17;;;;;;;8.55;6.50;;;6.90;99.90;;;;;;2075078;28;20072;-73
2023/11/12 03:17:18;;;;;;;10.52;6.60;;;7.00;99.90;;;;;;2075826;28;20128;-73
2023/11/12 03:18:19;;;;;;;10.13;6.35;;;6.90;99.90;;;;;;2076273;28;20147;-73
2023/11/12 03:19:21;;;;;;;9.93;6.60;;;6.90;99.90;;;;;;2075498;28;20131;-73
2023/11/12 03:20:23;;;;;;;10.63;6.90;;;6.90;99.90;;;;;;2070340;28;20017;-74
2023/11/12 03:21:23;;;;;;;9.05;6.43;;;6.90;99.90;;;;;;2075705;28;20032;-73
2023/11/12 03:22:24;;;;;;;10.25;6.85;;;6.90;99.90;;;;;;2079382;28;20033;-73
2023/11/12 03:23:25;;;;;;;9.18;6.47;;;6.90;99.90;;;;;;2079230;28;20032;-73
2023/11/12 03:24:26;;;;;;;9.57;6.60;;;6.90;99.90;;;;;;2070403;28;20057;-73
2023/11/12 03:25:26;;;;;;;9.00;6.75;;;6.90;99.90;;;;;;2063122;28;20496;-74
2023/11/12 03:26:27;;;;;;;10.45;6.95;;;6.90;99.90;;;;;;2071211;28;20209;-74
2023/11/12 03:27:29;;;;;;;8.13;6.65;;;7.00;99.90;;;;;;2065716;28;20029;-75
2023/11/12 03:28:30;;;;;;;9.82;6.53;;;7.00;99.90;;;;;;2064697;28;20040;-74
2023/11/12 03:29:31;;;;;;;8.20;6.32;;;6.90;99.90;;;;;;2078348;28;20123;-74
2023/11/12 03:30:31;;;;;;;8.63;6.90;;;7.00;99.90;;;;;;2069348;28;20276;-74
2023/11/12 03:31:32;;;;;;;9.82;6.70;;;6.90;99.90;;;;;;2070948;28;20029;-74
2023/11/12 03:32:33;;;;;;;8.23;6.60;;;6.90;99.90;;;;;;2075815;28;20029;-73
2023/11/12 03:33:35;;;;;;;8.75;6.47;;;6.90;99.90;;;;;;2079678;28;20041;-73
2023/11/12 03:34:35;;;;;;;9.65;6.55;;;6.90;99.90;;;;;;2078789;28;20588;-75
2023/11/12 03:35:37;;;;;;;7.40;6.22;;;6.90;99.90;;;;;;2076068;28;20033;-73
2023/11/12 03:36:38;;;;;;;7.70;6.00;;;7.00;99.90;;;;;;2077021;28;20052;-74
2023/11/12 03:37:38;;;;;;;9.63;6.70;;;6.90;99.90;;;;;;2078451;28;20403;-73
2023/11/12 03:38:39;;;;;;;11.50;6.35;;;7.00;99.90;;;;;;2079807;28;20024;-73
2023/11/12 03:39:39;;;;;;;10.07;6.50;;;6.90;99.90;;;;;;2076444;28;20030;-73
2023/11/12 03:40:40;;;;;;;7.95;6.38;;;6.90;99.90;;;;;;2077356;28;20270;-73
2023/11/12 03:41:40;;;;;;;11.55;6.32;;;7.00;99.90;;;;;;2078718;28;20114;-73
2023/11/12 03:42:41;;;;;;;8.60;6.13;;;7.00;99.90;;;;;;2075006;28;20403;-73
2023/11/12 03:43:41;;;;;;;7.35;6.07;;;7.00;99.90;;;;;;2076946;28;20510;-74
2023/11/12 03:44:43;;;;;;;10.80;6.07;;;6.90;99.90;;;;;;2079098;28;20029;-74
2023/11/12 03:45:44;;;;;;;9.02;6.30;;;7.00;99.90;;;;;;2068940;28;20034;-74
2023/11/12 03:46:45;;;;;;;7.82;5.90;;;6.90;99.90;;;;;;2060455;28;20054;-74
2023/11/12 03:47:45;;;;;;;9.18;6.30;;;6.90;99.90;;;;;;2070802;28;20029;-74
2023/11/12 03:48:46;;;;;;;8.02;6.00;;;6.90;99.90;;;;;;2069254;28;20037;-74
2023/11/12 03:49:48;;;;;;;7.93;6.18;;;6.90;99.90;;;;;;2068141;28;20046;-74
2023/11/12 03:50:49;;;;;;;9.55;6.50;;;6.90;99.90;;;;;;2058705;28;20019;-73
2023/11/12 03:51:51;;;;;;;9.68;6.15;;;6.90;99.90;;;;;;2050841;28;20034;-74
2023/11/12 03:52:52;;;;;;;10.50;6.38;;;6.90;99.90;;;;;;2058842;28;20034;-73
2023/11/12 03:53:53;;;;;;;8.43;6.10;;;6.90;99.90;;;;;;2070748;28;20078;-73
2023/11/12 03:54:53;;;;;;;7.90;6.10;;;6.90;99.90;;;;;;2078445;28;20516;-75
2023/11/12 03:55:54;;;;;;;6.82;6.00;;;7.00;99.90;;;;;;2075554;28;20104;-76
2023/11/12 03:56:54;;;;;;;8.80;5.95;;;6.90;99.90;;;;;;2067355;28;20267;-74
2023/11/12 03:57:55;;;;;;;8.15;6.07;;;6.90;99.90;;;;;;2063231;28;20018;-74
2023/11/12 03:58:57;;;;;;;7.13;6.05;;;7.00;99.90;;;;;;2059725;28;20037;-74
2023/11/12 03:59:58;;;;;;;8.65;5.97;;;7.00;99.90;;;;;;2068035;28;20467;-73
2023/11/12 04:00:59;;;;;;;9.05;6.10;;;7.00;99.90;;;;;;2051577;28;20397;-73
2023/11/12 04:02:00;;;;;;;7.93;5.60;;;7.00;99.90;;;;;;2063375;28;20057;-74
2023/11/12 04:03:00;;;;;;;8.63;6.20;;;7.00;99.90;;;;;;2058825;28;20030;-73
2023/11/12 04:04:01;;;;;;;9.35;5.97;;;7.00;99.90;;;;;;2066415;28;20028;-73
2023/11/12 04:05:02;;;;;;;8.10;6.07;;;7.00;99.90;;;;;;2068424;28;20022;-73
2023/11/12 04:06:03;;;;;;;7.20;5.95;;;6.90;99.90;;;;;;2063307;28;20026;-73
2023/11/12 04:07:03;;;;;;;8.45;5.68;;;6.90;99.90;;;;;;2067226;28;20053;-73
2023/11/12 04:08:04;;;;;;;6.70;5.75;;;7.00;99.90;;;;;;2069677;28;20128;-73
2023/11/12 04:09:06;;;;;;;8.57;5.55;;;7.00;99.90;;;;;;2066574;28;20117;-74
2023/11/12 04:10:07;;;;;;;9.68;6.00;;;6.90;99.90;;;;;;2067387;28;20041;-74
2023/11/12 04:11:07;;;;;;;9.75;6.00;;;7.00;99.90;;;;;;2061261;28;20033;-74
2023/11/12 04:12:08;;;;;;;8.55;6.22;;;7.00;99.90;;;;;;2066469;28;20076;-74
2023/11/12 04:13:09;;;;;;;7.75;5.97;;;6.90;99.90;;;;;;2079551;28;20291;-74
2023/11/12 04:14:09;;;;;;;7.20;5.70;;;7.00;99.90;;;;;;2066157;28;20496;-74
2023/11/12 04:15:10;;;;;;;7.53;6.10;;;7.00;99.90;;;;;;2058633;28;20041;-73
2023/11/12 04:16:11;;;;;;;10.77;6.15;;;6.90;99.90;;;;;;2070346;28;20022;-74
2023/11/12 04:17:11;;;;;;;6.85;5.90;;;6.90;99.90;;;;;;2066495;28;20512;-74
2023/11/12 04:18:12;;;;;;;10.68;5.78;;;6.90;99.90;;;;;;2066707;28;20113;-73
2023/11/12 04:19:12;;;;;;;7.50;6.10;;;6.90;99.90;;;;;;2059540;28;20025;-73
2023/11/12 04:20:14;;;;;;;7.55;6.13;;;6.90;99.90;;;;;;2060164;28;20038;-74
2023/11/12 04:21:15;;;;;;;10.55;5.80;;;6.90;99.90;;;;;;2068597;28;20025;-73
2023/11/12 04:22:16;;;;;;;7.78;6.00;;;6.90;99.90;;;;;;2067594;28;20675;-76
2023/11/12 04:23:16;;;;;;;8.85;6.38;;;7.00;99.90;;;;;;2067202;28;20026;-73
2023/11/12 04:24:17;;;;;;;8.73;6.35;;;7.00;99.90;;;;;;2071422;28;20055;-74
2023/11/12 04:25:18;;;;;;;7.95;6.18;;;7.00;99.90;;;;;;2062456;28;20459;-73
2023/11/12 04:26:19;;;;;;;7.18;6.13;;;6.90;99.90;;;;;;2068528;28;20397;-74
2023/11/12 04:27:22;;;;;;;8.63;6.15;;;7.00;99.90;;;;;;2067926;28;20048;-73
2023/11/12 04:28:26;;;;;;;8.90;6.53;;;6.90;99.90;;;;;;2066720;28;20116;-74
2023/11/12 04:29:27;;;;;;;8.45;6.57;;;6.90;99.90;;;;;;2067113;28;20038;-73
2023/11/12 04:30:28;;;;;;;10.57;6.85;;;6.90;99.90;;;;;;2078180;28;20025;-73
2023/11/12 04:31:28;;;;;;;7.68;6.18;;;6.90;99.90;;;;;;2074798;28;20119;-73
2023/11/12 04:32:29;;;;;;;10.25;6.80;;;6.90;99.90;;;;;;2070586;28;20292;-74
2023/11/12 04:33:29;;;;;;;7.75;6.63;;;6.90;99.90;;;;;;2066399;28;20033;-74
2023/11/12 04:34:31;;;;;;;7.50;6.55;;;6.90;99.90;;;;;;2058488;28;20337;-73
2023/11/12 04:35:32;;;;;;;8.20;6.30;;;6.90;99.90;;;;;;2070365;28;20416;-73
2023/11/12 04:36:35;;;;;;;10.98;6.78;;;6.90;99.90;;;;;;2079078;28;20032;-78
2023/11/12 04:37:35;;;;;;;7.38;6.47;;;6.90;99.90;;;;;;2067716;28;20036;-78
2023/11/12 04:38:36;;;;;;;8.65;6.93;;;6.90;99.90;;;;;;2061998;28;20061;-73
2023/11/12 04:39:37;;;;;;;10.15;6.72;;;6.80;99.90;;;;;;2075326;28;20503;-86
2023/11/12 04:40:37;;;;;;;9.07;7.07;;;6.80;99.90;;;;;;2067899;28;20405;-69
2023/11/12 04:41:38;;;;;;;9.52;7.03;;;6.80;99.90;;;;;;2069460;28;20595;-71
2023/11/12 04:42:39;;;;;;;9.48;6.97;;;6.80;99.90;;;;;;2062087;28;20491;-74
2023/11/12 04:43:40;;;;;;;9.55;6.85;;;6.70;99.90;;;;;;2067953;28;20103;-77
2023/11/12 04:44:40;;;;;;;7.85;7.00;;;6.70;99.90;;;;;;2077788;28;20435;-74
2023/11/12 04:45:42;;;;;;;9.68;6.82;;;6.70;99.90;;;;;;2070478;28;20068;-76
2023/11/12 04:46:43;;;;;;;9.57;7.28;;;6.70;99.90;;;;;;2068096;28;20076;-72
2023/11/12 04:47:44;;;;;;;9.35;6.70;;;6.70;99.90;;;;;;2068764;28;20042;-71
2023/11/12 04:48:46;;;;;;;8.55;6.85;;;6.70;99.90;;;;;;2067697;28;20532;-71
2023/11/12 04:49:46;;;;;;;8.55;7.10;;;6.70;99.90;;;;;;2076505;28;20037;-71
2023/11/12 04:50:47;;;;;;;9.35;7.47;;;6.70;99.90;;;;;;2075722;28;20029;-71
2023/11/12 04:51:47;;;;;;;9.45;7.10;;;6.70;99.90;;;;;;2075451;28;20476;-72
2023/11/12 04:52:48;;;;;;;10.32;7.13;;;6.70;99.90;;;;;;2079349;28;20511;-71
2023/11/12 04:53:48;;;;;;;7.90;6.90;;;6.70;99.90;;;;;;2074919;28;20029;-71
2023/11/12 04:54:50;;;;;;;8.98;6.78;;;6.70;99.90;;;;;;2066303;28;20049;-71
2023/11/12 04:55:51;;;;;;;8.60;7.45;;;6.70;99.90;;;;;;2058685;28;20444;-70
2023/11/12 04:56:51;;;;;;;8.82;7.07;;;6.70;99.90;;;;;;2074972;28;20037;-71
2023/11/12 04:57:52;;;;;;;10.88;7.60;;;6.70;99.90;;;;;;2078154;28;20116;-71
2023/11/12 04:58:53;;;;;;;9.35;7.65;;;6.70;99.90;;;;;;2077569;28;20032;-71
2023/11/12 04:59:53;;;;;;;9.10;7.28;;;6.70;99.90;;;;;;2075441;28;20285;-72
2023/11/12 05:00:54;;;;;;;10.52;6.88;;;6.70;99.90;;;;;;2074120;28;20100;-71
2023/11/12 05:01:55;;;;;;;8.85;6.88;;;6.70;99.90;;;;;;2075295;28;20365;-72
2023/11/12 05:02:55;;;;;;;8.63;7.22;;;6.70;99.90;;;;;;2082440;28;20509;-71
2023/11/12 05:03:56;;;;;;;7.97;7.13;;;6.70;99.90;;;;;;2086972;28;20636;-71
2023/11/12 05:04:56;;;;;;;7.88;6.97;;;6.70;99.90;;;;;;2077393;28;20562;-70
2023/11/12 05:06:00;;;;;;;8.98;7.28;;;6.70;99.90;;;;;;2071965;28;20025;-70
2023/11/12 05:07:00;;;;;;;9.70;6.70;;;6.70;99.90;;;;;;2070945;28;20033;-69
2023/11/12 05:08:01;;;;;;;10.02;6.78;;;6.70;99.90;;;;;;2079212;28;20498;-71
2023/11/12 05:09:02;;;;;;;9.75;7.00;;;6.70;99.90;;;;;;2078543;28;20075;-68
2023/11/12 05:10:05;;;;;;;9.35;6.72;;;6.70;99.90;;;;;;2073884;28;20033;-72
2023/11/12 05:11:05;;;;;;;8.93;6.80;;;6.70;99.90;;;;;;2075320;28;20108;-72
2023/11/12 05:12:06;;;;;;;9.52;6.93;;;6.70;99.90;;;;;;2078214;28;20021;-72
2023/11/12 05:13:07;;;;;;;9.65;6.90;;;6.70;99.90;;;;;;2067001;28;20625;-72
2023/11/12 05:14:09;;;;;;;9.05;7.03;;;6.70;99.90;;;;;;2077204;28;20025;-72
2023/11/12 05:15:10;;;;;;;9.15;7.10;;;6.70;99.90;;;;;;2078179;28;20480;-72
2023/11/12 05:16:11;;;;;;;8.95;7.40;;;6.70;99.90;;;;;;2076520;28;20033;-72
2023/11/12 05:17:11;;;;;;;9.10;6.85;;;6.70;99.90;;;;;;2077580;28;20092;-72
2023/11/12 05:18:12;;;;;;;8.40;7.15;;;6.80;99.90;;;;;;2079066;28;20542;-72
2023/11/12 05:19:12;;;;;;;7.97;6.68;;;6.80;99.90;;;;;;2075297;28;20510;-72
2023/11/12 05:20:13;;;;;;;7.95;6.70;;;6.80;99.90;;;;;;2068439;28;20033;-72
2023/11/12 05:21:13;;;;;;;10.15;7.10;;;6.80;99.90;;;;;;2069776;28;20537;-71
2023/11/12 05:22:14;;;;;;;8.50;7.10;;;6.80;99.90;;;;;;2076296;28;20550;-70